Time;durP1;ratioP1;P1;durP2;ratioP2;P2;SDS_P1;SDS_P2;PMS_P1;PMS_P2;Temp;Humidity;BMP_temperature;BMP_pressure;BME280_temperature;BME280_humidity;BME280_pressure;Samples;Min_cycle;Max_cycle;Signal;HPM_P1;HPM_P2
2021/04/06 00:01:01;;;;;;;4.50;1.10;;;0.30;99.30;;;;;;5034615;28;20610;-90
2021/04/06 00:03:29;;;;;;;4.33;1.23;;;0.30;99.30;;;;;;5034561;28;20198;-90
2021/04/06 00:06:02;;;;;;;3.53;1.57;;;0.30;99.30;;;;;;5034787;28;20186;-91
2021/04/06 00:08:30;;;;;;;11.93;1.77;;;0.30;99.30;;;;;;5034774;28;20169;-91
2021/04/06 00:11:01;;;;;;;4.90;1.50;;;0.30;99.30;;;;;;5034418;28;20223;-89
2021/04/06 00:13:31;;;;;;;5.70;1.60;;;0.30;99.30;;;;;;5034589;28;20177;-89
2021/04/06 00:16:00;;;;;;;4.83;1.37;;;0.30;99.30;;;;;;5034264;28;20219;-91
2021/04/06 00:18:27;;;;;;;6.60;1.83;;;0.30;99.30;;;;;;5035391;28;20219;-91
2021/04/06 00:20:58;;;;;;;11.97;2.00;;;0.30;99.40;;;;;;5033544;28;20195;-90
2021/04/06 00:23:25;;;;;;;8.10;2.20;;;0.30;99.40;;;;;;5034401;28;20206;-90
2021/04/06 00:25:52;;;;;;;5.33;1.77;;;0.30;99.50;;;;;;5021402;28;20184;-91
2021/04/06 00:28:25;;;;;;;5.67;1.80;;;0.30;99.50;;;;;;5014623;28;20161;-91
2021/04/06 00:30:53;;;;;;;3.33;1.50;;;0.30;99.40;;;;;;5014299;28;20271;-90
2021/04/06 00:33:33;;;;;;;5.80;1.80;;;0.20;99.40;;;;;;5014336;28;20171;-88
2021/04/06 00:36:01;;;;;;;10.03;1.87;;;0.20;99.50;;;;;;5014407;28;20164;-90
2021/04/06 00:38:32;;;;;;;6.97;1.97;;;0.20;99.60;;;;;;5014218;28;20173;-91
2021/04/06 00:41:02;;;;;;;5.37;1.50;;;0.20;99.60;;;;;;5014457;28;20217;-89
2021/04/06 00:43:36;;;;;;;5.10;1.50;;;0.20;99.80;;;;;;5014321;28;20202;-89
2021/04/06 00:46:05;;;;;;;7.27;1.77;;;0.10;99.70;;;;;;5013947;28;20159;-88
2021/04/06 00:48:32;;;;;;;7.30;1.50;;;0.10;99.80;;;;;;5014072;28;20166;-90
2021/04/06 00:51:06;;;;;;;6.97;1.63;;;0.20;99.70;;;;;;5014052;28;20193;-91
2021/04/06 00:54:03;;;;;;;7.53;2.00;;;0.20;99.80;;;;;;5014014;28;20173;-90
2021/04/06 00:56:30;;;;;;;7.47;1.50;;;0.20;99.80;;;;;;5031752;28;20186;-91
2021/04/06 00:58:59;;;;;;;2.93;1.27;;;0.20;99.90;;;;;;5033628;28;20645;-90
2021/04/06 01:01:31;;;;;;;7.77;1.53;;;0.20;99.90;;;;;;5034829;28;20199;-91
2021/04/06 01:03:57;;;;;;;5.77;1.57;;;0.20;99.90;;;;;;5033614;28;20223;-91
2021/04/06 01:06:24;;;;;;;2.87;1.77;;;0.20;99.90;;;;;;5033530;28;20169;-90
2021/04/06 01:08:51;;;;;;;3.50;1.30;;;0.30;99.90;;;;;;5033321;28;20271;-89
2021/04/06 01:11:17;;;;;;;8.43;1.50;;;0.30;99.90;;;;;;5033607;28;20238;-90
2021/04/06 01:13:44;;;;;;;2.93;1.40;;;0.40;99.80;;;;;;5033938;28;20596;-90
2021/04/06 01:16:10;;;;;;;7.90;2.20;;;0.40;99.80;;;;;;5033266;28;20209;-90
2021/04/06 01:18:36;;;;;;;4.50;2.27;;;0.50;99.90;;;;;;5033383;28;20170;-90
2021/04/06 01:21:10;;;;;;;4.07;2.30;;;0.50;99.90;;;;;;5033255;28;20194;-89
2021/04/06 01:23:37;;;;;;;6.23;2.70;;;0.50;99.90;;;;;;5033095;28;20254;-90
2021/04/06 01:26:08;;;;;;;7.70;2.93;;;0.40;99.90;;;;;;5019848;28;20245;-91
2021/04/06 01:28:34;;;;;;;8.47;3.30;;;0.30;99.90;;;;;;5013394;28;20170;-91
2021/04/06 01:31:03;;;;;;;6.97;3.53;;;0.30;99.90;;;;;;5013098;28;20235;-91
2021/04/06 01:33:33;;;;;;;7.53;3.57;;;0.30;99.90;;;;;;5013559;28;20199;-90
2021/04/06 01:36:05;;;;;;;6.07;3.63;;;0.30;99.90;;;;;;5013228;28;20172;-91
2021/04/06 01:38:33;;;;;;;8.30;3.93;;;0.30;99.90;;;;;;5013292;28;20178;-91
2021/04/06 01:41:01;;;;;;;6.80;3.53;;;0.30;99.90;;;;;;5013136;28;20206;-91
2021/04/06 01:43:29;;;;;;;6.40;3.50;;;0.30;99.90;;;;;;5013478;28;20294;-89
2021/04/06 01:46:16;;;;;;;6.90;3.73;;;0.20;99.90;;;;;;5013126;28;20166;-89
2021/04/06 01:48:43;;;;;;;5.60;3.37;;;0.30;99.90;;;;;;5014160;28;20188;-90
2021/04/06 01:51:09;;;;;;;4.63;3.30;;;0.30;99.90;;;;;;5013386;28;20678;-90
2021/04/06 01:53:36;;;;;;;9.30;3.50;;;0.20;99.90;;;;;;5013325;28;20265;-89
2021/04/06 01:56:12;;;;;;;5.63;3.10;;;0.20;99.90;;;;;;5027387;28;20281;-91
2021/04/06 01:58:41;;;;;;;6.80;3.10;;;0.20;99.90;;;;;;5032824;28;20170;-91
2021/04/06 02:03:39;;;;;;;5.57;2.97;;;0.20;99.90;;;;;;5033921;28;20207;-91
2021/04/06 02:06:08;;;;;;;5.07;2.50;;;0.20;99.90;;;;;;5032697;28;20166;-90
2021/04/06 02:08:34;;;;;;;4.97;2.63;;;0.20;99.90;;;;;;5032932;28;20158;-89
2021/04/06 02:11:00;;;;;;;4.63;2.77;;;0.20;99.90;;;;;;5032560;28;20670;-91
2021/04/06 02:13:26;;;;;;;5.07;2.53;;;0.20;99.90;;;;;;5032678;28;20213;-89
2021/04/06 02:15:57;;;;;;;3.60;2.40;;;0.20;99.90;;;;;;5032550;28;20165;-90
2021/04/06 02:18:25;;;;;;;5.90;2.30;;;0.20;99.90;;;;;;5032496;28;20174;-90
2021/04/06 02:20:52;;;;;;;6.37;2.57;;;0.20;99.90;;;;;;5032432;28;20193;-90
2021/04/06 02:23:20;;;;;;;3.63;2.03;;;0.20;99.90;;;;;;5032588;28;20208;-90
2021/04/06 02:25:53;;;;;;;3.80;2.30;;;0.20;99.90;;;;;;5032625;28;20528;-90
2021/04/06 02:28:24;;;;;;;4.57;2.30;;;0.20;99.90;;;;;;5032628;28;20166;-90
2021/04/06 02:31:01;;;;;;;4.80;2.37;;;0.20;99.90;;;;;;5032467;28;20842;-91
2021/04/06 02:33:34;;;;;;;2.97;2.17;;;0.20;99.90;;;;;;5032721;28;20526;-90
2021/04/06 02:36:05;;;;;;;3.93;2.63;;;0.20;99.90;;;;;;5032412;28;20262;-91
2021/04/06 02:38:33;;;;;;;2.33;2.00;;;0.20;99.90;;;;;;5032364;28;20174;-89
2021/04/06 02:41:14;;;;;;;3.40;2.50;;;0.10;99.90;;;;;;5032481;28;20194;-90
2021/04/06 02:43:43;;;;;;;6.10;2.57;;;0.10;99.90;;;;;;5411155;22;20198;-91
2021/04/06 02:46:09;;;;;;;3.77;2.30;;;0.10;99.90;;;;;;4997503;28;20297;-89
2021/04/06 02:48:36;;;;;;;4.70;2.40;;;0.10;99.90;;;;;;4997245;28;20164;-88
2021/04/06 02:51:02;;;;;;;5.13;2.53;;;0.10;99.90;;;;;;5003046;28;20681;-92
2021/04/06 02:53:30;;;;;;;7.50;2.73;;;0.10;99.90;;;;;;5019083;28;20644;-93
2021/04/06 02:55:57;;;;;;;4.33;2.27;;;0.10;99.90;;;;;;5018069;28;20570;-91
2021/04/06 02:58:23;;;;;;;4.40;2.40;;;0.20;99.90;;;;;;5017904;28;20171;-93
2021/04/06 03:00:49;;;;;;;4.70;2.37;;;0.10;99.90;;;;;;5016920;28;20601;-90
2021/04/06 03:03:23;;;;;;;5.60;3.07;;;0.20;99.90;;;;;;5016359;28;20219;-88
2021/04/06 03:06:04;;;;;;;3.67;2.10;;;0.20;99.90;;;;;;5016435;28;20167;-90
2021/04/06 03:08:31;;;;;;;2.90;1.80;;;0.10;99.90;;;;;;5016732;28;20166;-90
2021/04/06 03:10:57;;;;;;;3.37;2.20;;;0.10;99.90;;;;;;5016649;28;20288;-91
2021/04/06 03:13:25;;;;;;;4.67;2.60;;;0.10;99.90;;;;;;5016790;28;20198;-91
2021/04/06 03:15:52;;;;;;;4.40;2.47;;;0.10;99.90;;;;;;5016031;28;20171;-87
2021/04/06 03:18:21;;;;;;;3.33;2.30;;;0.00;99.90;;;;;;5015921;28;20704;-90
2021/04/06 03:20:47;;;;;;;4.23;2.80;;;0.10;99.90;;;;;;5016098;28;20188;-90
2021/04/06 03:23:12;;;;;;;5.27;2.40;;;0.00;99.90;;;;;;5016342;28;20233;-90
2021/04/06 03:25:38;;;;;;;3.97;2.37;;;0.00;99.90;;;;;;5016769;28;20263;-94
2021/04/06 03:28:13;;;;;;;6.43;3.00;;;0.00;99.90;;;;;;5016867;28;20242;-91
2021/04/06 03:30:39;;;;;;;4.53;2.33;;;-0.10;99.90;;;;;;5016201;28;20222;-93
2021/04/06 03:33:07;;;;;;;4.50;2.90;;;-0.10;99.90;;;;;;5017475;28;20567;-91
2021/04/06 03:35:36;;;;;;;4.40;2.53;;;-0.10;99.90;;;;;;5014707;28;20186;-94
2021/04/06 03:38:05;;;;;;;5.30;2.57;;;-0.10;99.90;;;;;;4996879;28;20179;-91
2021/04/06 03:40:35;;;;;;;4.03;2.40;;;-0.10;99.90;;;;;;4997244;28;20177;-91
2021/04/06 03:43:16;;;;;;;4.97;2.70;;;-0.10;99.90;;;;;;4996802;28;20298;-92
2021/04/06 03:46:04;;;;;;;4.20;2.67;;;-0.10;99.90;;;;;;4996002;28;20223;-91
2021/04/06 03:48:39;;;;;;;3.77;2.20;;;-0.10;99.90;;;;;;4996533;28;20265;-92
2021/04/06 03:51:26;;;;;;;2.63;1.93;;;-0.20;99.90;;;;;;4996966;28;20226;-92
2021/04/06 03:53:52;;;;;;;6.77;2.20;;;-0.20;99.90;;;;;;4996661;28;20229;-91
2021/04/06 03:56:19;;;;;;;3.47;2.33;;;-0.20;99.90;;;;;;5011705;28;20194;-91
2021/04/06 03:58:55;;;;;;;3.37;2.20;;;-0.20;99.90;;;;;;5015928;28;20193;-91
2021/04/06 04:01:21;;;;;;;2.13;1.77;;;-0.20;99.90;;;;;;5015729;28;20209;-92
2021/04/06 04:03:51;;;;;;;3.53;2.03;;;-0.20;99.90;;;;;;5015390;28;20206;-93
2021/04/06 04:06:28;;;;;;;2.23;1.67;;;-0.20;99.90;;;;;;5015678;28;20199;-92
2021/04/06 04:08:54;;;;;;;2.27;1.70;;;-0.20;99.90;;;;;;5015725;28;20584;-92
2021/04/06 04:11:21;;;;;;;2.33;1.63;;;-0.10;99.90;;;;;;5015203;28;20193;-92
2021/04/06 04:13:48;;;;;;;2.93;1.50;;;-0.20;99.90;;;;;;5015321;28;20174;-93
2021/04/06 04:16:15;;;;;;;5.40;1.63;;;-0.20;99.90;;;;;;5015243;28;20169;-91
2021/04/06 04:18:41;;;;;;;2.07;1.40;;;-0.20;99.90;;;;;;5015276;28;20172;-92
2021/04/06 04:21:10;;;;;;;3.30;1.60;;;-0.20;99.90;;;;;;5015574;28;20597;-94
2021/04/06 04:23:36;;;;;;;4.47;1.50;;;-0.20;99.90;;;;;;5015551;28;20234;-92
2021/04/06 04:26:02;;;;;;;2.03;1.20;;;-0.20;99.90;;;;;;5015048;28;20176;-93
2021/04/06 04:28:29;;;;;;;2.33;1.53;;;-0.30;99.90;;;;;;5014711;28;20272;-93
2021/04/06 04:30:55;;;;;;;7.40;1.97;;;-0.20;99.90;;;;;;5015025;28;20197;-92
2021/04/06 04:33:22;;;;;;;2.93;1.63;;;-0.20;99.90;;;;;;5015944;28;20173;-91
2021/04/06 04:35:47;;;;;;;2.30;1.70;;;-0.20;99.90;;;;;;5014792;28;20579;-91
2021/04/06 04:38:13;;;;;;;2.97;2.10;;;-0.20;99.90;;;;;;5015058;28;20173;-91
2021/04/06 04:40:43;;;;;;;4.20;2.20;;;-0.30;99.90;;;;;;5015612;28;20177;-93
2021/04/06 04:43:12;;;;;;;6.40;2.70;;;-0.20;99.90;;;;;;5014001;28;20232;-90
2021/04/06 04:45:38;;;;;;;5.77;2.60;;;-0.20;99.90;;;;;;5014156;28;20224;-91
2021/04/06 04:48:06;;;;;;;2.57;2.20;;;-0.20;99.90;;;;;;5002325;28;20185;-91
2021/04/06 04:50:32;;;;;;;5.33;3.07;;;-0.20;99.90;;;;;;4994728;28;20165;-92
2021/04/06 04:52:58;;;;;;;4.53;2.40;;;-0.10;99.90;;;;;;4995188;28;20206;-92
2021/04/06 04:55:25;;;;;;;6.70;3.33;;;-0.10;99.90;;;;;;5012568;28;20186;-91
2021/04/06 04:57:52;;;;;;;9.20;3.53;;;-0.10;99.90;;;;;;5014407;28;20172;-91
2021/04/06 05:00:19;;;;;;;5.00;3.20;;;-0.10;99.90;;;;;;5001319;28;20630;-93
2021/04/06 05:02:48;;;;;;;10.43;3.20;;;-0.10;99.90;;;;;;4996039;28;20263;-93
2021/04/06 05:05:17;;;;;;;8.20;3.87;;;0.00;99.90;;;;;;4994875;28;20175;-92
2021/04/06 05:07:44;;;;;;;7.87;4.10;;;0.10;99.90;;;;;;4994724;28;20170;-92
2021/04/06 05:10:13;;;;;;;7.17;3.53;;;0.10;99.90;;;;;;4995137;28;20261;-91
2021/04/06 05:12:39;;;;;;;9.43;3.63;;;0.20;99.90;;;;;;4994549;28;20260;-91
2021/04/06 05:15:06;;;;;;;4.70;3.40;;;0.30;99.90;;;;;;4994633;28;20182;-92
2021/04/06 05:17:32;;;;;;;10.23;3.43;;;0.30;99.90;;;;;;4994836;28;20741;-92
2021/04/06 05:20:00;;;;;;;5.23;3.63;;;0.30;99.90;;;;;;4995148;28;20238;-93
2021/04/06 05:22:25;;;;;;;11.63;4.00;;;0.30;99.90;;;;;;4995376;28;20234;-93
2021/04/06 05:24:51;;;;;;;9.23;3.67;;;0.30;99.90;;;;;;4994749;28;20624;-92
2021/04/06 05:27:17;;;;;;;9.17;3.80;;;0.40;99.90;;;;;;4995353;28;20177;-93
2021/04/06 05:29:43;;;;;;;6.83;3.80;;;0.40;99.90;;;;;;5003277;28;20181;-92
2021/04/06 05:32:09;;;;;;;7.73;3.50;;;0.40;99.90;;;;;;5014229;28;20323;-90
2021/04/06 05:34:35;;;;;;;7.03;3.90;;;0.50;99.90;;;;;;5014894;28;20201;-92
2021/04/06 05:37:02;;;;;;;9.07;3.97;;;0.60;99.90;;;;;;5015287;28;20169;-94
2021/04/06 05:39:28;;;;;;;6.43;3.90;;;0.60;99.90;;;;;;5015440;28;20189;-92
2021/04/06 05:41:54;;;;;;;11.00;4.13;;;0.60;99.90;;;;;;5014970;28;20205;-92
2021/04/06 05:44:20;;;;;;;7.27;3.40;;;0.70;99.90;;;;;;5015246;28;20233;-94
2021/04/06 05:46:49;;;;;;;7.47;3.37;;;0.70;99.90;;;;;;5015903;28;20194;-93
2021/04/06 05:49:20;;;;;;;6.33;4.30;;;0.70;99.90;;;;;;5015727;28;20167;-91
2021/04/06 05:51:50;;;;;;;8.40;4.33;;;0.70;99.90;;;;;;5015143;28;20200;-93
2021/04/06 05:54:17;;;;;;;10.20;4.10;;;0.80;99.90;;;;;;5016296;28;20171;-94
2021/04/06 05:56:43;;;;;;;8.87;3.63;;;0.80;99.90;;;;;;5015602;28;20175;-92
2021/04/06 05:59:09;;;;;;;7.70;3.63;;;0.90;99.90;;;;;;5015459;28;20642;-91
2021/04/06 06:01:45;;;;;;;8.87;3.83;;;0.80;99.90;;;;;;5014272;28;20218;-92
2021/04/06 06:04:17;;;;;;;8.37;4.00;;;0.90;99.90;;;;;;5015046;28;20253;-93
2021/04/06 06:06:45;;;;;;;6.93;3.47;;;0.90;99.90;;;;;;5014678;28;20180;-92
2021/04/06 06:09:13;;;;;;;7.50;3.20;;;0.90;99.90;;;;;;5015221;28;20237;-93
2021/04/06 06:12:13;;;;;;;8.83;3.50;;;0.80;99.90;;;;;;5005242;28;20207;-93
2021/04/06 06:14:42;;;;;;;5.80;3.10;;;0.80;99.90;;;;;;4995270;28;20183;-95
2021/04/06 06:17:27;;;;;;;4.83;3.03;;;0.80;99.90;;;;;;4994682;28;20211;-93
2021/04/06 06:19:57;;;;;;;4.40;2.97;;;0.90;99.90;;;;;;4998139;28;20175;-94
2021/04/06 06:22:25;;;;;;;9.40;3.17;;;1.00;99.90;;;;;;4999070;28;20234;-93
2021/04/06 06:25:11;;;;;;;4.90;3.13;;;1.00;99.90;;;;;;4999117;28;20177;-94
2021/04/06 06:27:40;;;;;;;5.47;3.40;;;1.10;99.90;;;;;;4998937;28;20226;-94
2021/04/06 06:30:31;;;;;;;8.03;4.07;;;1.10;99.90;;;;;;4999159;28;20178;-91
2021/04/06 06:33:20;;;;;;;8.57;3.27;;;1.10;99.90;;;;;;4999355;28;20182;-94
2021/04/06 06:36:24;;;;;;;7.23;2.83;;;1.10;99.90;;;;;;4998454;28;20270;-95
2021/04/06 06:38:50;;;;;;;13.23;3.43;;;1.00;99.90;;;;;;4962305;28;20179;-94
2021/04/06 06:41:21;;;;;;;10.40;3.87;;;1.00;99.90;;;;;;4992247;28;20655;-92
2021/04/06 06:43:55;;;;;;;4.93;3.10;;;0.90;99.90;;;;;;4998553;28;20257;-93
2021/04/06 06:46:23;;;;;;;6.63;3.17;;;1.00;99.90;;;;;;4998369;28;20186;-95
2021/04/06 06:48:54;;;;;;;11.40;2.70;;;1.00;99.90;;;;;;4998126;28;20282;-91
2021/04/06 06:51:27;;;;;;;11.60;3.43;;;1.00;99.90;;;;;;4997742;28;20290;-93
2021/04/06 06:53:56;;;;;;;6.00;3.07;;;1.00;99.90;;;;;;4998690;28;20176;-93
2021/04/06 06:56:42;;;;;;;8.47;3.17;;;1.10;99.90;;;;;;5000395;28;20242;-93
2021/04/06 06:59:10;;;;;;;8.07;2.90;;;1.30;99.90;;;;;;4999746;28;20186;-92
2021/04/06 07:01:38;;;;;;;8.57;3.23;;;1.50;99.90;;;;;;4999493;28;20209;-96
2021/04/06 07:04:12;;;;;;;9.97;3.13;;;1.60;99.90;;;;;;5000442;28;20218;-95
2021/04/06 07:06:43;;;;;;;8.33;3.10;;;1.70;99.90;;;;;;5000105;28;20643;-94
2021/04/06 07:09:27;;;;;;;6.73;3.00;;;1.80;99.90;;;;;;5001139;28;20238;-96
2021/04/06 07:11:58;;;;;;;11.47;3.27;;;1.90;99.90;;;;;;5011239;28;20208;-94
2021/04/06 07:14:25;;;;;;;10.03;2.90;;;1.90;99.90;;;;;;5019161;28;20177;-94
2021/04/06 07:16:53;;;;;;;8.20;2.90;;;2.00;99.90;;;;;;5018084;28;20175;-94
2021/04/06 07:19:20;;;;;;;10.20;3.20;;;2.10;99.90;;;;;;5018578;28;20251;-93
2021/04/06 07:21:49;;;;;;;13.47;2.93;;;2.10;99.90;;;;;;5019017;28;20195;-93
2021/04/06 07:24:28;;;;;;;7.17;3.00;;;2.30;99.90;;;;;;5020115;28;20207;-95
2021/04/06 07:26:57;;;;;;;10.17;2.90;;;2.30;99.90;;;;;;5019492;28;20167;-95
2021/04/06 07:29:23;;;;;;;11.47;2.60;;;2.40;99.90;;;;;;5020199;28;20205;-95
2021/04/06 07:31:52;;;;;;;7.27;2.80;;;2.40;99.90;;;;;;5018228;28;20666;-93
2021/04/06 07:34:18;;;;;;;9.47;3.27;;;2.40;99.90;;;;;;5001639;28;20183;-93
2021/04/06 07:36:44;;;;;;;10.83;2.63;;;2.40;99.90;;;;;;5019400;28;20258;-94
2021/04/06 07:39:12;;;;;;;9.80;2.30;;;2.40;99.90;;;;;;5020386;28;20230;-94
2021/04/06 07:41:45;;;;;;;12.17;2.43;;;2.60;99.90;;;;;;5019012;28;20211;-95
2021/04/06 07:44:12;;;;;;;12.47;2.80;;;2.70;99.90;;;;;;5020634;28;20233;-94
2021/04/06 07:46:40;;;;;;;8.90;1.93;;;2.70;99.90;;;;;;5020938;28;20179;-93
2021/04/06 07:49:09;;;;;;;7.70;2.27;;;2.60;99.90;;;;;;5020412;28;20178;-94
2021/04/06 07:52:03;;;;;;;13.00;2.47;;;2.60;99.90;;;;;;5019910;28;20655;-95
2021/04/06 07:54:32;;;;;;;6.63;2.10;;;2.50;99.90;;;;;;5016402;28;20202;-93
2021/04/06 07:57:01;;;;;;;5.20;2.20;;;2.60;99.90;;;;;;5019214;28;20700;-92
2021/04/06 07:59:40;;;;;;;4.83;1.90;;;2.50;99.90;;;;;;5018499;28;20268;-94
2021/04/06 08:02:06;;;;;;;6.60;2.00;;;2.60;99.90;;;;;;5017837;28;20686;-95
2021/04/06 08:04:38;;;;;;;8.40;2.40;;;2.80;99.40;;;;;;5018221;28;20175;-94
2021/04/06 08:07:24;;;;;;;10.60;2.03;;;2.90;99.90;;;;;;5016515;28;20177;-94
2021/04/06 08:09:58;;;;;;;14.77;2.47;;;3.10;99.90;;;;;;5016882;28;20239;-93
2021/04/06 08:12:33;;;;;;;9.90;2.47;;;3.10;99.90;;;;;;5017475;28;20250;-94
2021/04/06 08:15:13;;;;;;;10.63;2.13;;;3.10;99.90;;;;;;5017619;28;20185;-94
2021/04/06 08:17:44;;;;;;;8.60;2.03;;;3.00;99.60;;;;;;5016630;28;20249;-93
2021/04/06 08:20:22;;;;;;;7.67;2.00;;;3.00;99.30;;;;;;5016285;28;20206;-93
2021/04/06 08:23:09;;;;;;;13.00;2.33;;;3.10;99.20;;;;;;5017052;28;20217;-94
2021/04/06 08:25:34;;;;;;;13.57;2.33;;;3.10;98.30;;;;;;5017957;28;20183;-95
2021/04/06 08:28:06;;;;;;;9.97;2.23;;;3.00;99.00;;;;;;5017263;28;20646;-91
2021/04/06 08:30:34;;;;;;;14.53;2.13;;;3.00;98.70;;;;;;5017255;28;20180;-95
2021/04/06 08:33:00;;;;;;;9.00;2.13;;;3.00;98.50;;;;;;5016990;28;20210;-95
2021/04/06 08:35:45;;;;;;;10.67;2.27;;;3.00;98.60;;;;;;5017186;28;20187;-94
2021/04/06 08:38:23;;;;;;;4.87;1.80;;;3.10;98.90;;;;;;5016535;28;20702;-92
2021/04/06 08:40:54;;;;;;;10.87;2.30;;;3.30;99.10;;;;;;5015649;28;20197;-92
2021/04/06 08:43:41;;;;;;;10.60;2.37;;;3.40;98.70;;;;;;5018086;28;20617;-94
2021/04/06 08:46:16;;;;;;;11.67;2.40;;;3.40;99.30;;;;;;5016979;28;20187;-96
2021/04/06 08:48:46;;;;;;;11.53;2.60;;;3.70;97.70;;;;;;5015977;28;20167;-93
2021/04/06 08:51:25;;;;;;;12.27;2.70;;;3.90;97.70;;;;;;5016439;28;20250;-95
2021/04/06 08:53:57;;;;;;;11.47;2.23;;;3.80;96.70;;;;;;5016238;28;20213;-94
2021/04/06 08:56:28;;;;;;;12.03;2.00;;;3.80;96.00;;;;;;5016224;28;20178;-96
2021/04/06 08:59:14;;;;;;;10.47;2.33;;;3.60;97.50;;;;;;5016023;28;20172;-93
2021/04/06 09:01:41;;;;;;;9.23;2.10;;;3.50;96.30;;;;;;5017101;28;20290;-93
2021/04/06 09:04:21;;;;;;;14.13;2.93;;;3.50;97.10;;;;;;5017348;28;20238;-94
2021/04/06 09:06:49;;;;;;;9.63;2.03;;;3.50;97.70;;;;;;5016659;28;20565;-93
2021/04/06 09:09:29;;;;;;;10.77;2.27;;;3.60;97.40;;;;;;5016947;28;20274;-93
2021/04/06 09:11:57;;;;;;;8.60;2.00;;;3.70;97.50;;;;;;5016975;28;20729;-95
2021/04/06 09:14:29;;;;;;;9.37;1.80;;;3.70;96.50;;;;;;5016682;28;20183;-94
2021/04/06 09:16:56;;;;;;;7.77;2.00;;;3.70;96.40;;;;;;5016590;28;20202;-94
2021/04/06 09:19:24;;;;;;;11.03;2.03;;;3.80;96.20;;;;;;5016417;28;20183;-94
2021/04/06 09:21:55;;;;;;;7.57;1.93;;;3.90;97.00;;;;;;5016883;28;20203;-94
2021/04/06 09:24:23;;;;;;;9.70;2.33;;;4.00;96.30;;;;;;5015515;28;20206;-90
2021/04/06 09:26:52;;;;;;;10.10;2.20;;;3.90;95.50;;;;;;5016622;28;20270;-92
2021/04/06 09:29:27;;;;;;;13.43;2.53;;;3.80;95.30;;;;;;5016453;28;20178;-94
2021/04/06 09:31:59;;;;;;;11.23;2.20;;;3.90;97.00;;;;;;5017242;28;20218;-95
2021/04/06 09:34:28;;;;;;;8.93;2.57;;;4.00;96.60;;;;;;5015974;28;20189;-93
2021/04/06 09:36:58;;;;;;;10.00;2.40;;;4.00;95.40;;;;;;5014497;28;20168;-90
2021/04/06 09:39:26;;;;;;;10.13;2.10;;;4.10;94.30;;;;;;5014894;28;20182;-92
2021/04/06 09:41:53;;;;;;;11.73;2.27;;;4.30;95.30;;;;;;5015458;28;20667;-89
2021/04/06 09:44:22;;;;;;;9.93;2.20;;;4.30;94.60;;;;;;5015637;28;20227;-93
2021/04/06 09:46:54;;;;;;;9.30;2.83;;;4.40;93.40;;;;;;5016081;28;20181;-90
2021/04/06 09:49:22;;;;;;;15.07;2.47;;;4.50;94.00;;;;;;5013214;28;20167;-93
2021/04/06 09:51:50;;;;;;;10.53;2.53;;;4.30;93.60;;;;;;4999356;28;20197;-92
2021/04/06 09:54:26;;;;;;;6.93;2.20;;;4.20;93.30;;;;;;4993882;28;20239;-93
2021/04/06 09:56:54;;;;;;;6.87;2.20;;;4.10;94.70;;;;;;4995525;28;20188;-93
2021/04/06 09:59:20;;;;;;;6.60;2.03;;;4.30;95.00;;;;;;4994397;28;20172;-91
2021/04/06 10:01:51;;;;;;;9.60;1.80;;;4.70;94.80;;;;;;4994503;28;20206;-93
2021/04/06 10:04:35;;;;;;;7.60;2.20;;;5.00;92.00;;;;;;4994956;28;20297;-90
2021/04/06 10:07:18;;;;;;;10.77;1.80;;;5.00;92.10;;;;;;4995349;28;20263;-93
2021/04/06 10:09:59;;;;;;;8.67;2.20;;;4.70;93.00;;;;;;4996708;28;20181;-94
2021/04/06 10:12:30;;;;;;;7.60;2.20;;;4.50;93.10;;;;;;4997292;28;20569;-91
2021/04/06 10:14:56;;;;;;;8.00;2.20;;;4.40;92.80;;;;;;4995912;28;20177;-90
2021/04/06 10:17:33;;;;;;;6.90;1.90;;;4.50;94.00;;;;;;4995891;28;20519;-91
2021/04/06 10:20:05;;;;;;;8.33;2.20;;;4.70;93.80;;;;;;4995775;28;20177;-92
2021/04/06 10:22:55;;;;;;;8.87;2.27;;;4.50;93.60;;;;;;4994702;28;20211;-91
2021/04/06 10:25:27;;;;;;;8.07;1.87;;;4.40;93.10;;;;;;4994559;28;20637;-89
2021/04/06 10:27:56;;;;;;;8.40;1.97;;;4.20;92.20;;;;;;4994345;28;20226;-90
2021/04/06 10:30:36;;;;;;;9.60;2.50;;;4.20;92.40;;;;;;4994090;28;20306;-91
2021/04/06 10:33:09;;;;;;;13.10;2.23;;;4.30;92.00;;;;;;4994832;28;20179;-93
2021/04/06 10:35:49;;;;;;;11.60;2.20;;;4.60;94.10;;;;;;4995594;28;20178;-91
2021/04/06 10:38:22;;;;;;;9.47;2.17;;;4.70;92.30;;;;;;4995836;28;20205;-91
2021/04/06 10:41:02;;;;;;;9.43;1.77;;;4.70;93.60;;;;;;4995905;28;20243;-92
2021/04/06 10:43:29;;;;;;;7.33;2.10;;;4.90;93.50;;;;;;4995430;28;20210;-92
2021/04/06 10:46:07;;;;;;;10.63;1.90;;;5.30;93.00;;;;;;4994828;28;20225;-92
2021/04/06 10:48:38;;;;;;;5.60;1.70;;;5.60;92.50;;;;;;4995144;28;20279;-92
2021/04/06 10:51:25;;;;;;;6.23;1.83;;;6.00;89.00;;;;;;4995180;28;20277;-91
2021/04/06 10:53:53;;;;;;;5.93;2.10;;;5.90;90.50;;;;;;4995577;28;20534;-91
2021/04/06 10:56:39;;;;;;;9.13;2.17;;;5.90;90.90;;;;;;4994409;28;20263;-92
2021/04/06 10:59:10;;;;;;;7.23;1.80;;;6.20;91.40;;;;;;4994636;28;20199;-91
2021/04/06 11:01:45;;;;;;;7.77;1.97;;;6.30;88.70;;;;;;4993885;28;20203;-93
2021/04/06 11:04:20;;;;;;;11.67;2.83;;;6.20;88.60;;;;;;4994727;28;20203;-92
2021/04/06 11:06:48;;;;;;;6.73;2.87;;;6.10;89.10;;;;;;4997703;28;20163;-93
2021/04/06 11:09:17;;;;;;;7.37;1.77;;;5.90;86.30;;;;;;4997409;28;20175;-91
2021/04/06 11:11:47;;;;;;;9.47;2.17;;;5.60;86.80;;;;;;4997041;28;20201;-91
2021/04/06 11:14:15;;;;;;;7.90;1.80;;;5.30;89.40;;;;;;4998196;28;20166;-90
2021/04/06 11:16:43;;;;;;;4.63;1.50;;;5.40;81.10;;;;;;4999217;28;20632;-92
2021/04/06 11:19:14;;;;;;;7.90;2.13;;;5.60;83.70;;;;;;4999435;28;20521;-91
2021/04/06 11:21:45;;;;;;;7.87;1.80;;;5.70;87.00;;;;;;4997393;28;20203;-90
2021/04/06 11:24:14;;;;;;;6.77;1.97;;;6.00;83.40;;;;;;4996932;28;20236;-92
2021/04/06 11:26:41;;;;;;;6.77;1.70;;;6.40;88.80;;;;;;4997084;28;20160;-94
2021/04/06 11:29:10;;;;;;;6.73;2.20;;;6.40;84.50;;;;;;4997157;28;20164;-92
2021/04/06 11:31:36;;;;;;;4.73;1.47;;;6.10;84.30;;;;;;4996819;28;20277;-91
2021/04/06 11:34:04;;;;;;;12.77;2.00;;;6.10;83.10;;;;;;4997157;28;20707;-93
2021/04/06 11:36:30;;;;;;;3.97;1.47;;;6.00;85.30;;;;;;4997437;28;20542;-91
2021/04/06 11:38:56;;;;;;;5.83;1.60;;;6.00;84.80;;;;;;4996610;28;20168;-91
2021/04/06 11:41:22;;;;;;;5.57;1.53;;;6.10;81.70;;;;;;4996788;28;20200;-92
2021/04/06 11:43:48;;;;;;;3.93;1.43;;;6.20;84.20;;;;;;4996600;28;20690;-91
2021/04/06 11:46:15;;;;;;;9.83;2.30;;;6.30;85.60;;;;;;4996577;28;20204;-93
2021/04/06 11:48:42;;;;;;;6.63;1.80;;;6.60;86.10;;;;;;4996280;28;20262;-90
2021/04/06 11:51:08;;;;;;;4.33;1.50;;;6.90;82.00;;;;;;4996409;28;20196;-91
2021/04/06 11:53:34;;;;;;;7.57;1.80;;;6.90;80.70;;;;;;4996479;28;20179;-92
2021/04/06 11:56:01;;;;;;;7.33;2.00;;;6.60;79.80;;;;;;4996093;28;20214;-90
2021/04/06 11:58:27;;;;;;;7.13;1.80;;;6.20;79.80;;;;;;4996196;28;20234;-91
2021/04/06 12:00:53;;;;;;;7.83;2.00;;;5.90;78.90;;;;;;4996066;28;20196;-89
2021/04/06 12:03:19;;;;;;;6.87;2.00;;;5.70;79.50;;;;;;4996060;28;20215;-93
2021/04/06 12:05:44;;;;;;;7.53;1.93;;;5.50;80.50;;;;;;4996311;28;20176;-93
2021/04/06 12:08:10;;;;;;;5.60;1.50;;;5.60;84.80;;;;;;4995850;28;20191;-90
2021/04/06 12:10:36;;;;;;;7.30;1.50;;;5.80;83.20;;;;;;4997431;28;20184;-90
2021/04/06 12:13:03;;;;;;;6.10;1.40;;;5.80;84.00;;;;;;5015710;28;20528;-92
2021/04/06 12:15:29;;;;;;;8.80;1.90;;;5.90;83.20;;;;;;5014376;28;20248;-88
2021/04/06 12:17:55;;;;;;;4.63;1.67;;;5.80;81.60;;;;;;5015047;28;20630;-89
2021/04/06 12:20:22;;;;;;;5.33;1.40;;;5.70;78.90;;;;;;5015296;28;20232;-93
2021/04/06 12:22:50;;;;;;;7.10;1.83;;;5.50;79.70;;;;;;5015390;28;20207;-90
2021/04/06 12:25:16;;;;;;;1.90;1.00;;;5.50;84.00;;;;;;5015735;28;20672;-91
2021/04/06 12:27:42;;;;;;;3.60;0.90;;;4.90;90.70;;;;;;5016019;28;20172;-90
2021/04/06 12:30:08;;;;;;;2.20;0.73;;;4.10;93.10;;;;;;5016026;28;20627;-92
2021/04/06 12:32:34;;;;;;;4.67;0.90;;;3.40;95.20;;;;;;5015381;28;20203;-91
2021/04/06 12:34:59;;;;;;;4.60;1.57;;;2.90;96.80;;;;;;5014628;28;20206;-94
2021/04/06 12:37:26;;;;;;;4.07;1.17;;;2.50;98.10;;;;;;5016086;28;20237;-91
2021/04/06 12:39:52;;;;;;;4.20;1.30;;;2.20;99.60;;;;;;5015181;28;20178;-93
2021/04/06 12:42:18;;;;;;;5.47;1.50;;;2.10;99.90;;;;;;5014703;28;20202;-91
2021/04/06 12:44:44;;;;;;;4.20;1.90;;;2.20;99.90;;;;;;5014675;28;20222;-93
2021/04/06 12:47:10;;;;;;;8.60;1.30;;;2.70;99.90;;;;;;5014604;28;20179;-91
2021/04/06 12:49:35;;;;;;;7.20;1.57;;;3.30;99.90;;;;;;5014840;28;20187;-91
2021/04/06 12:52:02;;;;;;;4.47;1.50;;;3.70;98.70;;;;;;5014384;28;20225;-90
2021/04/06 12:54:27;;;;;;;3.13;1.20;;;4.20;98.00;;;;;;5015032;28;20634;-88
2021/04/06 12:56:53;;;;;;;3.53;1.50;;;4.60;96.00;;;;;;5014853;28;20179;-94
2021/04/06 12:59:20;;;;;;;6.50;1.40;;;4.80;94.30;;;;;;5014931;28;20646;-90
2021/04/06 13:01:46;;;;;;;4.63;1.20;;;5.10;94.60;;;;;;5015270;28;20202;-92
2021/04/06 13:04:12;;;;;;;3.73;1.20;;;5.30;94.20;;;;;;5014929;28;20252;-89
2021/04/06 13:06:38;;;;;;;4.07;1.40;;;5.40;93.80;;;;;;5015256;28;20268;-89
2021/04/06 13:09:04;;;;;;;5.33;1.70;;;5.60;93.70;;;;;;5015313;28;20174;-92
2021/04/06 13:11:31;;;;;;;7.63;1.90;;;5.70;93.20;;;;;;5014068;28;20290;-93